createdAt,value
2022-11-27T06:54:12.785Z,7.38
2022-11-27T06:56:44.466Z,7.40
2022-11-27T06:59:16.120Z,10.02
2022-11-27T07:01:47.792Z,8.17
2022-11-27T07:04:20.799Z,7.50
2022-11-27T07:06:53.860Z,7.15
2022-11-27T07:09:25.531Z,7.53
2022-11-27T07:11:57.174Z,6.30
2022-11-27T07:14:28.896Z,6.40
2022-11-27T07:17:00.539Z,6.47
2022-11-27T07:19:33.896Z,6.32
2022-11-27T07:22:05.530Z,6.50
2022-11-27T07:24:37.168Z,6.25
2022-11-27T07:27:08.799Z,5.85
2022-11-27T07:29:40.450Z,5.70
2022-11-27T07:32:12.115Z,5.20
2022-11-27T07:34:45.118Z,5.60
2022-11-27T07:37:16.748Z,5.78
2022-11-27T07:40:01.897Z,6.20
2022-11-27T07:42:38.943Z,5.93
2022-11-27T07:45:11.231Z,5.63
2022-11-27T07:47:42.908Z,6.77
2022-11-27T07:50:15.951Z,5.63
2022-11-27T07:52:47.630Z,5.50
2022-11-27T07:55:19.292Z,5.97
2022-11-27T07:57:51.211Z,5.68
2022-11-27T08:00:23.026Z,6.05
2022-11-27T08:02:54.651Z,6.85
2022-11-27T08:05:27.654Z,5.63
2022-11-27T08:08:00.105Z,6.00
2022-11-27T08:10:31.932Z,6.07
2022-11-27T08:13:03.724Z,5.63
2022-11-27T08:15:36.234Z,6.03
2022-11-27T08:18:07.874Z,5.13
2022-11-27T08:20:40.900Z,5.30
2022-11-27T08:23:12.547Z,5.47
2022-11-27T08:25:44.200Z,5.40
2022-11-27T08:28:15.843Z,8.17
2022-11-27T08:30:54.944Z,6.50
2022-11-27T08:33:26.596Z,6.27
2022-11-27T08:35:59.583Z,5.53
2022-11-27T08:38:31.244Z,5.17
2022-11-27T08:41:04.037Z,5.20
2022-11-27T08:43:35.805Z,5.40
2022-11-27T08:46:07.723Z,5.53
2022-11-27T08:48:39.461Z,5.70
2022-11-27T08:51:13.648Z,5.07
2022-11-27T08:53:45.299Z,5.43
2022-11-27T08:56:18.425Z,5.00
2022-11-27T08:58:50.085Z,5.63
2022-11-27T09:01:22.618Z,5.57
2022-11-27T09:03:54.476Z,5.50
2022-11-27T09:06:28.847Z,5.73
2022-11-27T09:09:01.139Z,4.87
2022-11-27T09:11:33.106Z,5.50
2022-11-27T09:14:05.964Z,5.47
2022-11-27T09:16:37.705Z,5.80
2022-11-27T09:19:09.374Z,5.97
2022-11-27T09:21:42.374Z,5.93
2022-11-27T09:24:14.006Z,5.30
2022-11-27T09:26:45.657Z,4.57
2022-11-27T09:29:17.279Z,5.00
2022-11-27T09:31:48.964Z,5.03
2022-11-27T09:34:20.630Z,5.03
2022-11-27T09:36:53.617Z,5.20
2022-11-27T09:39:25.270Z,4.97
2022-11-27T09:41:57.777Z,4.93
2022-11-27T09:44:31.952Z,4.93
2022-11-27T09:47:06.955Z,5.40
2022-11-27T09:49:41.654Z,4.83
2022-11-27T09:52:19.286Z,4.97
2022-11-27T09:54:53.191Z,4.57
2022-11-27T09:57:27.667Z,5.20
2022-11-27T10:00:01.517Z,5.47
2022-11-27T10:02:33.562Z,5.17
2022-11-27T10:05:14.584Z,5.50
2022-11-27T10:08:12.806Z,5.20
2022-11-27T10:10:47.364Z,5.60
2022-11-27T10:13:28.560Z,5.87
2022-11-27T10:16:02.830Z,5.03
2022-11-27T10:18:36.420Z,5.20
2022-11-27T10:21:09.686Z,5.67
2022-11-27T10:23:45.483Z,4.90
2022-11-27T10:26:18.409Z,4.63
2022-11-27T10:28:54.591Z,5.97
2022-11-27T10:31:32.762Z,4.80
2022-11-27T10:34:06.838Z,5.33
2022-11-27T10:36:39.894Z,5.10
2022-11-27T10:39:15.595Z,4.63
2022-11-27T10:41:50.396Z,4.73
2022-11-27T10:44:26.743Z,4.83
2022-11-27T10:47:00.422Z,5.10
2022-11-27T10:49:38.918Z,4.43
2022-11-27T10:52:12.894Z,4.30
2022-11-27T10:54:46.978Z,4.20
2022-11-27T10:57:26.486Z,4.20
2022-11-27T11:00:02.905Z,4.83
2022-11-27T11:02:35.400Z,4.17
2022-11-27T11:08:15.906Z,4.67
2022-11-27T11:10:53.059Z,4.50
2022-11-27T11:13:25.868Z,4.53
2022-11-27T11:15:59.490Z,4.70
2022-11-27T11:18:32.080Z,4.33
2022-11-27T11:21:04.676Z,4.37
2022-11-27T11:23:37.676Z,4.70
2022-11-27T11:26:13.389Z,4.43
2022-11-27T11:28:48.498Z,4.97
2022-11-27T11:31:21.301Z,4.33
2022-11-27T11:33:54.414Z,4.30
2022-11-27T11:36:26.090Z,4.50
2022-11-27T11:38:57.771Z,4.40
2022-11-27T11:41:37.663Z,4.40
2022-11-27T11:44:20.149Z,4.33
2022-11-27T11:46:52.660Z,4.40
2022-11-27T11:49:24.803Z,4.80
2022-11-27T11:52:04.491Z,4.03
2022-11-27T11:54:45.192Z,4.20
2022-11-27T11:57:53.588Z,4.57
2022-11-27T12:00:32.392Z,4.67
2022-11-27T12:03:31.412Z,5.13
2022-11-27T12:06:12.788Z,5.30
2022-11-27T12:08:51.082Z,4.53
2022-11-27T12:11:23.654Z,4.50
2022-11-27T12:14:02.378Z,4.77
2022-11-27T12:16:40.227Z,4.40
2022-11-27T12:19:24.803Z,3.80
2022-11-27T12:21:59.955Z,4.23
2022-11-27T12:24:36.590Z,4.27
2022-11-27T12:27:14.034Z,4.57
2022-11-27T12:30:02.993Z,4.30
2022-11-27T12:32:49.313Z,4.43
2022-11-27T12:35:31.505Z,4.47
2022-11-27T12:38:11.131Z,6.97
2022-11-27T12:40:56.664Z,3.77
2022-11-27T12:43:29.007Z,5.00
2022-11-27T12:46:02.538Z,5.07
2022-11-27T12:48:36.688Z,5.83
2022-11-27T12:51:09.204Z,5.20
2022-11-27T12:53:43.177Z,7.20
2022-11-27T12:56:18.548Z,4.40
2022-11-27T12:58:52.974Z,4.27
2022-11-27T13:01:27.305Z,3.97
2022-11-27T13:04:05.405Z,4.17
2022-11-27T13:06:51.312Z,4.53
2022-11-27T13:09:27.315Z,4.47
2022-11-27T13:11:59.055Z,4.57
2022-11-27T13:14:30.721Z,4.83
2022-11-27T13:17:03.725Z,4.90
2022-11-27T13:19:37.888Z,4.40
2022-11-27T13:22:11.777Z,4.27
2022-11-27T13:24:43.722Z,4.57
2022-11-27T13:27:16.175Z,3.83
2022-11-27T13:29:49.135Z,5.30
2022-11-27T13:32:21.559Z,4.33
2022-11-27T13:34:55.872Z,6.47
2022-11-27T13:37:29.016Z,5.60
2022-11-27T13:40:02.062Z,4.10
2022-11-27T13:42:34.363Z,3.60
2022-11-27T13:45:06.963Z,7.50
2022-11-27T13:47:40.171Z,6.13
2022-11-27T13:50:14.040Z,5.40
2022-11-27T13:52:52.847Z,4.93
2022-11-27T13:55:26.103Z,5.87
2022-11-27T13:57:58.464Z,7.10
2022-11-27T14:00:34.908Z,4.40
2022-11-27T14:03:06.950Z,6.30
2022-11-27T14:05:41.509Z,14.07
2022-11-27T14:08:17.381Z,13.50
2022-11-27T14:10:54.171Z,7.50
2022-11-27T14:13:36.847Z,4.27
2022-11-27T14:16:17.702Z,3.67
2022-11-27T14:18:50.388Z,3.93
2022-11-27T14:21:25.885Z,3.47
2022-11-27T14:23:57.542Z,3.73
2022-11-27T14:26:29.198Z,3.57
2022-11-27T14:29:00.871Z,3.20
2022-11-27T14:31:33.652Z,4.07
2022-11-27T14:34:15.636Z,5.10
2022-11-27T14:36:51.398Z,4.63
2022-11-27T14:39:24.033Z,4.20
2022-11-27T14:41:59.477Z,3.63
2022-11-27T14:44:31.211Z,3.90
2022-11-27T14:47:05.197Z,3.73
2022-11-27T14:49:36.898Z,3.67
2022-11-27T14:52:14.688Z,4.47
2022-11-27T14:54:46.348Z,4.17
2022-11-27T14:57:20.041Z,3.83
2022-11-27T15:00:01.914Z,4.53
2022-11-27T15:02:33.737Z,4.17
2022-11-27T15:05:06.023Z,5.47
2022-11-27T15:07:46.722Z,4.37
2022-11-27T15:10:32.231Z,4.10
2022-11-27T15:13:04.814Z,4.30
2022-11-27T15:15:38.830Z,4.03
2022-11-27T15:18:17.995Z,4.70
2022-11-27T15:20:49.715Z,4.10
2022-11-27T15:23:23.443Z,4.20
2022-11-27T15:26:09.548Z,4.20
2022-11-27T15:28:50.815Z,4.17
2022-11-27T15:31:24.710Z,4.63
2022-11-27T15:33:57.997Z,4.53
2022-11-27T15:36:39.785Z,4.83
2022-11-27T15:39:20.868Z,4.07
2022-11-27T15:41:56.735Z,4.67
2022-11-27T15:44:29.261Z,4.90
2022-11-27T15:47:01.423Z,4.43
2022-11-27T15:49:33.133Z,4.90
2022-11-27T15:52:04.856Z,4.53
2022-11-27T15:54:37.888Z,4.70
2022-11-27T15:57:09.636Z,4.33
2022-11-27T15:59:41.337Z,4.93
2022-11-27T16:02:17.409Z,4.43
2022-11-27T16:04:49.657Z,5.00
2022-11-27T16:07:21.333Z,4.63
2022-11-27T16:09:54.364Z,4.13
2022-11-27T16:12:26.049Z,5.27
2022-11-27T16:14:57.722Z,4.73
2022-11-27T16:17:29.344Z,5.53
2022-11-27T16:20:01.019Z,4.67
2022-11-27T16:22:32.677Z,4.77
2022-11-27T16:25:06.736Z,5.13
2022-11-27T16:27:38.396Z,5.00
2022-11-27T16:30:10.716Z,5.33
2022-11-27T16:32:42.355Z,5.20
2022-11-27T16:35:14.016Z,5.03
2022-11-27T16:37:45.656Z,5.13
2022-11-27T16:40:18.740Z,5.13
2022-11-27T16:42:50.382Z,5.10
2022-11-27T16:45:22.102Z,5.37
2022-11-27T16:47:53.779Z,5.17
2022-11-27T16:50:25.419Z,5.53
2022-11-27T16:52:57.241Z,5.20
2022-11-27T16:55:30.255Z,5.77
2022-11-27T16:58:01.888Z,5.47
2022-11-27T17:00:33.542Z,5.10
2022-11-27T17:03:05.168Z,5.00
2022-11-27T17:05:37.066Z,4.93
2022-11-27T17:08:08.733Z,5.27
2022-11-27T17:10:41.783Z,5.20
2022-11-27T17:13:13.422Z,5.30
2022-11-27T17:15:45.067Z,6.20
2022-11-27T17:18:16.692Z,5.50
2022-11-27T17:20:48.411Z,6.27
2022-11-27T17:23:20.044Z,5.60
2022-11-27T17:25:53.038Z,5.37
2022-11-27T17:28:24.674Z,5.60
2022-11-27T17:30:56.328Z,6.03
2022-11-27T17:33:27.961Z,7.27
2022-11-27T17:35:59.607Z,7.53
2022-11-27T17:38:31.232Z,6.03
2022-11-27T17:41:05.169Z,6.03
2022-11-27T17:43:36.949Z,6.37
2022-11-27T17:46:09.024Z,6.03
2022-11-27T17:48:40.670Z,6.50
2022-11-27T17:51:12.319Z,7.10
2022-11-27T17:53:44.083Z,9.20
2022-11-27T17:56:18.208Z,6.73
2022-11-27T17:58:49.844Z,7.03
2022-11-27T18:01:22.405Z,6.27
2022-11-27T18:03:54.286Z,6.83
2022-11-27T18:06:25.952Z,6.00
2022-11-27T18:08:57.634Z,6.70
2022-11-27T18:11:31.315Z,5.33
2022-11-27T18:14:03.112Z,5.30
2022-11-27T18:16:35.761Z,5.37
2022-11-27T18:19:08.340Z,5.40
2022-11-27T18:21:39.971Z,6.53
2022-11-27T18:24:26.883Z,5.77
2022-11-27T18:27:08.120Z,6.10
2022-11-27T18:29:41.733Z,5.90
2022-11-27T18:32:14.364Z,5.37
2022-11-27T18:34:46.095Z,5.97
2022-11-27T18:37:17.725Z,6.07
2022-11-27T18:39:49.360Z,5.70
2022-11-27T18:42:22.361Z,5.70
2022-11-27T18:44:54.010Z,6.40
2022-11-27T18:47:25.683Z,5.50
2022-11-27T18:49:57.376Z,6.50
2022-11-27T18:52:29.086Z,6.67
2022-11-27T18:55:00.714Z,6.27
2022-11-27T18:57:33.712Z,5.60
2022-11-27T19:00:06.778Z,6.60
2022-11-27T19:07:41.493Z,5.60
2022-11-27T19:10:13.167Z,6.20
2022-11-27T19:12:46.125Z,6.30
2022-11-27T19:15:17.828Z,5.77
2022-11-27T19:17:49.472Z,6.10
2022-11-27T19:20:21.131Z,6.23
2022-11-27T19:22:52.764Z,6.50
2022-11-27T19:27:57.262Z,6.18
2022-11-27T19:30:33.841Z,7.90
2022-11-27T19:33:05.725Z,5.87
2022-11-27T19:35:37.443Z,8.50
2022-11-27T19:38:09.076Z,7.63
2022-11-27T19:40:40.729Z,8.47
2022-11-27T19:43:13.696Z,10.77
2022-11-27T19:45:45.368Z,7.70
2022-11-27T19:48:22.711Z,7.53
2022-11-27T19:51:00.936Z,7.83
2022-11-27T19:53:32.583Z,6.97
2022-11-27T19:56:04.568Z,6.53
2022-11-27T19:58:37.543Z,6.03
2022-11-27T20:01:09.743Z,6.37
2022-11-27T20:03:41.588Z,6.10
2022-11-27T20:06:14.605Z,6.50
2022-11-27T20:08:46.597Z,6.20
2022-11-27T20:11:19.540Z,6.63
2022-11-27T20:13:52.516Z,6.43
2022-11-27T20:16:24.242Z,6.70
2022-11-27T20:18:55.894Z,6.30
2022-11-27T20:21:27.572Z,5.90
2022-11-27T20:23:59.200Z,6.73
2022-11-27T20:26:31.028Z,6.23
2022-11-27T20:29:04.035Z,6.53
2022-11-27T20:31:36.367Z,7.13
2022-11-27T20:34:08.259Z,7.30
2022-11-27T20:36:39.911Z,7.13
2022-11-27T20:39:15.080Z,6.83
2022-11-27T20:41:50.682Z,7.33
2022-11-27T20:44:23.750Z,7.73
2022-11-27T20:46:55.393Z,6.57
2022-11-27T20:49:27.026Z,6.93
2022-11-27T20:51:58.663Z,7.23
2022-11-27T20:54:30.308Z,7.27
2022-11-27T20:57:01.990Z,6.93
2022-11-27T20:59:35.008Z,6.90
2022-11-27T21:02:07.391Z,7.57
2022-11-27T21:04:39.095Z,6.87
2022-11-27T21:07:10.749Z,7.77
2022-11-27T21:09:42.718Z,7.47
2022-11-27T21:12:14.543Z,6.60
2022-11-27T21:14:47.548Z,7.27
2022-11-27T21:17:19.183Z,7.67
2022-11-27T21:19:50.998Z,7.43
2022-11-27T21:22:22.659Z,7.80
2022-11-27T21:24:54.385Z,7.70
2022-11-27T21:27:26.684Z,8.00
2022-11-27T21:29:59.659Z,7.60
2022-11-27T21:32:31.333Z,7.43
2022-11-27T21:35:03.192Z,8.10
2022-11-27T21:37:34.868Z,8.00
2022-11-27T21:40:07.684Z,7.73
2022-11-27T21:42:44.299Z,7.73
2022-11-27T21:45:17.899Z,7.03
2022-11-27T21:47:49.551Z,7.40
2022-11-27T21:50:21.188Z,7.03
2022-11-27T21:52:52.838Z,7.17
2022-11-27T21:55:24.488Z,7.20
2022-11-27T21:57:56.155Z,7.00
2022-11-27T22:00:29.141Z,6.60
2022-11-27T22:03:00.806Z,6.97
2022-11-27T22:05:32.438Z,7.57
2022-11-27T22:08:04.309Z,7.07
2022-11-27T22:10:39.202Z,6.80
2022-11-27T22:13:10.856Z,7.03
2022-11-27T22:15:43.824Z,7.17
2022-11-27T22:18:15.486Z,6.83
2022-11-27T22:20:47.145Z,6.90
2022-11-27T22:23:18.844Z,6.93
2022-11-27T22:25:50.482Z,7.53
2022-11-27T22:28:22.163Z,6.83
2022-11-27T22:30:55.208Z,6.93
2022-11-27T22:33:26.896Z,7.37
2022-11-27T22:35:58.540Z,6.83
2022-11-27T22:38:30.205Z,6.60
2022-11-27T22:41:01.855Z,7.33
2022-11-27T22:43:33.716Z,7.30
2022-11-27T22:46:07.859Z,7.10
2022-11-27T22:48:39.590Z,7.07
2022-11-27T22:51:11.272Z,6.93
2022-11-27T22:53:42.948Z,7.33
2022-11-27T22:56:14.598Z,7.77
2022-11-27T22:58:46.359Z,7.50
